sensor_id;sensor_type;location;lat;lon;timestamp;P1;P2;P0
47709;PMS7003;33473;51.640;5.892;2022-09-09T00:08:14;0.01;2.52;2.08
47709;PMS7003;33473;51.640;5.892;2022-09-09T00:21:34;0.01;2.41;2.08
47709;PMS7003;33473;51.640;5.892;2022-09-09T00:34:54;0.6;3.28;2.73
47709;PMS7003;33473;51.640;5.892;2022-09-09T00:48:14;0.24;3.5;2.62
47709;PMS7003;33473;51.640;5.892;2022-09-09T01:01:34;0.12;3.39;2.73
47709;PMS7003;33473;51.640;5.892;2022-09-09T01:14:54;0.48;3.61;2.73
47709;PMS7003;33473;51.640;5.892;2022-09-09T01:28:13;0.24;3.39;2.62
47709;PMS7003;33473;51.640;5.892;2022-09-09T01:41:33;1.32;3.5;2.62
47709;PMS7003;33473;51.640;5.892;2022-09-09T01:54:53;0.6;3.5;2.84
47709;PMS7003;33473;51.640;5.892;2022-09-09T02:08:13;0.0;3.28;2.62
47709;PMS7003;33473;51.640;5.892;2022-09-09T02:21:33;0.12;3.39;2.62
47709;PMS7003;33473;51.640;5.892;2022-09-09T02:34:52;0.84;3.17;2.62
47709;PMS7003;33473;51.640;5.892;2022-09-09T02:48:12;1.44;3.39;2.84
47709;PMS7003;33473;51.640;5.892;2022-09-09T03:01:32;0.72;3.61;2.84
47709;PMS7003;33473;51.640;5.892;2022-09-09T03:14:52;1.56;4.26;3.17
47709;PMS7003;33473;51.640;5.892;2022-09-09T03:28:12;3.0;4.7;3.71
47709;PMS7003;33473;51.640;5.892;2022-09-09T03:41:32;1.92;4.91;3.71
47709;PMS7003;33473;51.640;5.892;2022-09-09T03:54:51;2.64;5.57;4.37
47709;PMS7003;33473;51.640;5.892;2022-09-09T04:08:11;2.4;5.35;4.15
47709;PMS7003;33473;51.640;5.892;2022-09-09T04:21:31;2.4;5.24;3.82
47709;PMS7003;33473;51.640;5.892;2022-09-09T04:34:51;4.45;5.02;3.82
47709;PMS7003;33473;51.640;5.892;2022-09-09T04:48:11;3.73;4.8;3.61
47709;PMS7003;33473;51.640;5.892;2022-09-09T05:01:31;0.96;4.04;3.06
47709;PMS7003;33473;51.640;5.892;2022-09-09T05:14:50;1.68;3.93;2.73
47709;PMS7003;33473;51.640;5.892;2022-09-09T05:28:10;3.48;3.82;3.06
47709;PMS7003;33473;51.640;5.892;2022-09-09T05:41:30;0.72;3.39;2.62
47709;PMS7003;33473;51.640;5.892;2022-09-09T05:54:50;0.6;3.61;2.52
47709;PMS7003;33473;51.640;5.892;2022-09-09T06:08:10;3.0;3.82;2.73
47709;PMS7003;33473;51.640;5.892;2022-09-09T06:21:30;1.44;4.15;2.95
47709;PMS7003;33473;51.640;5.892;2022-09-09T06:34:50;2.04;4.91;3.5
47709;PMS7003;33473;51.640;5.892;2022-09-09T06:48:09;3.85;5.57;4.15
47709;PMS7003;33473;51.640;5.892;2022-09-09T07:01:29;4.09;4.7;3.61
47709;PMS7003;33473;51.640;5.892;2022-09-09T07:14:49;1.92;4.8;3.5
47709;PMS7003;33473;51.640;5.892;2022-09-09T07:28:09;2.76;5.24;3.93
47709;PMS7003;33473;51.640;5.892;2022-09-09T07:41:29;5.53;6.66;4.7
47709;PMS7003;33473;51.640;5.892;2022-09-09T07:54:49;1.8;4.59;3.28
47709;PMS7003;33473;51.640;5.892;2022-09-09T08:08:09;1.56;4.59;3.28
47709;PMS7003;33473;51.640;5.892;2022-09-09T08:21:28;3.73;4.26;2.95
47709;PMS7003;33473;51.640;5.892;2022-09-09T08:34:48;2.16;3.39;2.52
47709;PMS7003;33473;51.640;5.892;2022-09-09T08:48:08;1.68;3.06;2.08
47709;PMS7003;33473;51.640;5.892;2022-09-09T09:01:28;0.24;3.28;1.97
47709;PMS7003;33473;51.640;5.892;2022-09-09T09:14:48;0.0;2.41;1.86
47709;PMS7003;33473;51.640;5.892;2022-09-09T09:28:08;0.0;2.62;1.97
47709;PMS7003;33473;51.640;5.892;2022-09-09T09:41:28;0.01;2.08;1.64
47709;PMS7003;33473;51.640;5.892;2022-09-09T09:54:47;0.01;2.19;1.64
47709;PMS7003;33473;51.640;5.892;2022-09-09T10:08:07;0.01;2.08;1.64
47709;PMS7003;33473;51.640;5.892;2022-09-09T10:21:27;0.01;2.08;1.75
47709;PMS7003;33473;51.640;5.892;2022-09-09T10:34:47;0.01;2.62;1.64
47709;PMS7003;33473;51.640;5.892;2022-09-09T10:48:07;0.6;2.41;1.64
47709;PMS7003;33473;51.640;5.892;2022-09-09T11:01:27;0.01;1.75;1.32
47709;PMS7003;33473;51.640;5.892;2022-09-09T11:14:46;0.01;2.41;1.75
47709;PMS7003;33473;51.640;5.892;2022-09-09T11:28:06;0.6;2.73;2.19
47709;PMS7003;33473;51.640;5.892;2022-09-09T11:41:29;1.92;2.95;2.19
47709;PMS7003;33473;51.640;5.892;2022-09-09T11:54:48;1.68;3.06;2.19
47709;PMS7003;33473;51.640;5.892;2022-09-09T12:08:08;0.84;2.95;2.19
47709;PMS7003;33473;51.640;5.892;2022-09-09T12:21:28;0.48;3.5;2.73
47709;PMS7003;33473;51.640;5.892;2022-09-09T12:34:48;1.32;4.15;3.28
47709;PMS7003;33473;51.640;5.892;2022-09-09T12:48:10;2.64;4.8;3.82
47709;PMS7003;33473;51.640;5.892;2022-09-09T13:01:30;2.28;4.37;3.5
47709;PMS7003;33473;51.640;5.892;2022-09-09T13:14:50;2.28;4.04;3.5
47709;PMS7003;33473;51.640;5.892;2022-09-09T13:28:10;0.6;3.61;2.73
47709;PMS7003;33473;51.640;5.892;2022-09-09T13:41:30;0.01;2.62;2.3
47709;PMS7003;33473;51.640;5.892;2022-09-09T13:54:49;1.08;3.06;2.41
47709;PMS7003;33473;51.640;5.892;2022-09-09T14:08:09;0.01;3.06;2.41
47709;PMS7003;33473;51.640;5.892;2022-09-09T14:21:29;0.48;2.73;2.19
47709;PMS7003;33473;51.640;5.892;2022-09-09T14:34:49;0.01;2.3;1.64
47709;PMS7003;33473;51.640;5.892;2022-09-09T14:48:09;0.01;2.41;1.86
47709;PMS7003;33473;51.640;5.892;2022-09-09T15:01:28;0.01;2.3;1.86
47709;PMS7003;33473;51.640;5.892;2022-09-09T15:14:48;0.0;2.41;1.75
47709;PMS7003;33473;51.640;5.892;2022-09-09T15:28:08;0.48;2.19;1.64
47709;PMS7003;33473;51.640;5.892;2022-09-09T15:41:28;3.0;2.3;1.86
47709;PMS7003;33473;51.640;5.892;2022-09-09T15:54:48;0.01;2.3;1.75
47709;PMS7003;33473;51.640;5.892;2022-09-09T16:08:08;0.01;1.21;
47709;PMS7003;33473;51.640;5.892;2022-09-09T16:21:27;;;
47709;PMS7003;33473;51.640;5.892;2022-09-09T16:34:47;0.01;1.21;
47709;PMS7003;33473;51.640;5.892;2022-09-09T16:48:07;0.01;1.75;1.32
47709;PMS7003;33473;51.640;5.892;2022-09-09T17:01:27;0.01;1.97;1.64
47709;PMS7003;33473;51.640;5.892;2022-09-09T17:14:47;0.01;2.41;1.97
47709;PMS7003;33473;51.640;5.892;2022-09-09T17:28:06;0.01;2.52;2.3
47709;PMS7003;33473;51.640;5.892;2022-09-09T17:41:26;0.48;3.71;3.17
47709;PMS7003;33473;51.640;5.892;2022-09-09T17:54:46;0.6;2.73;2.19
47709;PMS7003;33473;51.640;5.892;2022-09-09T18:08:06;0.48;2.84;2.3
47709;PMS7003;33473;51.640;5.892;2022-09-09T18:21:26;0.01;2.95;2.52
47709;PMS7003;33473;51.640;5.892;2022-09-09T18:34:46;0.01;2.52;2.19
47709;PMS7003;33473;51.640;5.892;2022-09-09T18:48:05;0.01;2.62;1.97
47709;PMS7003;33473;51.640;5.892;2022-09-09T19:01:28;0.24;3.5;2.73
47709;PMS7003;33473;51.640;5.892;2022-09-09T19:14:48;30.49;25.73;17.34
47709;PMS7003;33473;51.640;5.892;2022-09-09T19:28:07;30.61;26.17;16.58
47709;PMS7003;33473;51.640;5.892;2022-09-09T19:41:27;15.97;17.01;11.45
47709;PMS7003;33473;51.640;5.892;2022-09-09T19:54:47;5.41;7.97;6.55
47709;PMS7003;33473;51.640;5.892;2022-09-09T20:08:07;4.45;6.99;5.46
47709;PMS7003;33473;51.640;5.892;2022-09-09T20:21:27;3.73;6.44;5.13
47709;PMS7003;33473;51.640;5.892;2022-09-09T20:34:47;3.12;5.9;4.91
47709;PMS7003;33473;51.640;5.892;2022-09-09T20:48:07;3.12;5.68;4.7
47709;PMS7003;33473;51.640;5.892;2022-09-09T21:01:27;2.76;5.57;4.37
47709;PMS7003;33473;51.640;5.892;2022-09-09T21:14:46;2.4;5.35;4.59
47709;PMS7003;33473;51.640;5.892;2022-09-09T21:41:26;3.0;5.68;4.37
47709;PMS7003;33473;51.640;5.892;2022-09-09T21:54:46;3.12;5.13;4.15
47709;PMS7003;33473;51.640;5.892;2022-09-09T22:08:06;6.97;4.91;3.82
47709;PMS7003;33473;51.640;5.892;2022-09-09T22:21:26;2.52;5.24;4.15
47709;PMS7003;33473;51.640;5.892;2022-09-09T22:34:46;2.4;5.35;4.37
47709;PMS7003;33473;51.640;5.892;2022-09-09T23:14:45;2.88;5.13;4.15
47709;PMS7003;33473;51.640;5.892;2022-09-09T23:28:05;2.64;4.7;3.93
